River Grove, Illinois
Current Conditions -  °F | °C
As of 4:51 PM on Tuesday 25 Nov 2014 (Local Time) from KORD Reporting Station
Few Clouds Few Clouds  
Wind Chill: 12°   Ceiling: Unl
Heat Index: 22°   Visibility: 10mi
Dew Point: 16°   Wind: 9mph
Humidity: 78%   Direction: 260°W
Pressure: 30.14"   Gusts: NA
Location:  41.93°N, 87.83°W
Report Text: KORD 252251Z 26008KT 10SM FEW020 M06/M09 A3014 RMK AO2 SLP218 T10561089
Loading
Personal Weather Stations






























Interactive Weather Map New forecast layout! Learn more

10-Day Weather Forecast

Advertisements
Track Severe Weather on mobile